createdAt,value
2024-04-15T00:01:48.008Z,100.00
2024-04-15T00:04:14.970Z,100.00
2024-04-15T00:06:41.652Z,100.00
2024-04-15T00:09:08.310Z,100.00
2024-04-15T00:11:35.037Z,100.00
2024-04-15T00:14:01.661Z,100.00
2024-04-15T00:16:28.376Z,100.00
2024-04-15T00:18:55.166Z,100.00
2024-04-15T00:21:21.808Z,100.00
2024-04-15T00:23:48.524Z,100.00
2024-04-15T00:26:15.241Z,100.00
2024-04-15T00:28:41.914Z,100.00
2024-04-15T00:31:08.572Z,100.00
2024-04-15T00:33:35.406Z,100.00
2024-04-15T00:36:02.194Z,100.00
2024-04-15T00:38:28.832Z,100.00
2024-04-15T00:40:55.689Z,100.00
2024-04-15T00:43:22.398Z,100.00
2024-04-15T00:45:49.140Z,100.00
2024-04-15T00:48:16.075Z,100.00
2024-04-15T00:50:42.794Z,100.00
2024-04-15T00:53:09.471Z,100.00
2024-04-15T00:55:36.194Z,100.00
2024-04-15T00:58:02.965Z,100.00
2024-04-15T01:00:29.684Z,100.00
2024-04-15T01:02:56.393Z,100.00
2024-04-15T01:05:23.032Z,100.00
2024-04-15T01:07:49.697Z,100.00
2024-04-15T01:10:16.444Z,100.00
2024-04-15T01:12:43.159Z,100.00
2024-04-15T01:15:09.822Z,100.00
2024-04-15T01:17:36.562Z,100.00
2024-04-15T01:20:03.177Z,100.00
2024-04-15T01:22:31.319Z,100.00
2024-04-15T01:24:58.108Z,100.00
2024-04-15T01:27:24.731Z,100.00
2024-04-15T01:29:51.347Z,100.00
2024-04-15T01:32:18.140Z,100.00
2024-04-15T01:34:44.966Z,100.00
2024-04-15T01:37:11.693Z,100.00
2024-04-15T01:39:38.554Z,100.00
2024-04-15T01:42:05.242Z,100.00
2024-04-15T01:44:31.908Z,100.00
2024-04-15T01:46:58.692Z,100.00
2024-04-15T01:49:25.368Z,100.00
2024-04-15T01:51:52.042Z,100.00
2024-04-15T01:54:18.729Z,100.00
2024-04-15T01:56:45.345Z,100.00
2024-04-15T01:59:12.047Z,100.00
2024-04-15T02:01:38.816Z,100.00
2024-04-15T02:04:05.512Z,100.00
2024-04-15T02:06:32.202Z,100.00
2024-04-15T02:08:58.991Z,100.00
2024-04-15T02:11:25.754Z,100.00
2024-04-15T02:13:52.596Z,100.00
2024-04-15T02:16:19.675Z,100.00
2024-04-15T02:18:46.494Z,100.00
2024-04-15T02:21:13.178Z,100.00
2024-04-15T02:23:39.870Z,100.00
2024-04-15T02:26:06.521Z,100.00
2024-04-15T02:28:33.164Z,100.00
2024-04-15T02:30:59.874Z,100.00
2024-04-15T02:33:26.534Z,100.00
2024-04-15T02:35:53.159Z,100.00
2024-04-15T02:38:19.913Z,100.00
2024-04-15T02:40:46.542Z,100.00
2024-04-15T02:43:13.274Z,100.00
2024-04-15T02:45:40.159Z,100.00
2024-04-15T02:48:06.820Z,100.00
2024-04-15T02:50:33.480Z,100.00
2024-04-15T02:53:00.163Z,100.00
2024-04-15T02:55:26.993Z,100.00
2024-04-15T02:57:53.694Z,100.00
2024-04-15T03:00:20.357Z,100.00
2024-04-15T03:02:47.019Z,100.00
2024-04-15T03:05:13.747Z,100.00
2024-04-15T03:07:40.422Z,100.00
2024-04-15T03:10:07.069Z,100.00
2024-04-15T03:12:33.764Z,100.00
2024-04-15T03:15:00.566Z,100.00
2024-04-15T03:17:27.296Z,100.00
2024-04-15T03:19:53.930Z,100.00
2024-04-15T03:22:20.660Z,100.00
2024-04-15T03:24:47.344Z,100.00
2024-04-15T03:27:13.979Z,100.00
2024-04-15T03:29:40.669Z,100.00
2024-04-15T03:32:07.419Z,100.00
2024-04-15T03:34:34.185Z,100.00
2024-04-15T03:37:00.907Z,100.00
2024-04-15T03:39:27.519Z,100.00
2024-04-15T03:41:54.150Z,100.00
2024-04-15T03:44:20.856Z,100.00
2024-04-15T03:46:47.830Z,100.00
2024-04-15T03:49:14.505Z,100.00
2024-04-15T03:51:41.236Z,100.00
2024-04-15T03:54:07.862Z,100.00
2024-04-15T03:56:34.498Z,100.00
2024-04-15T03:59:01.391Z,100.00
2024-04-15T04:01:28.195Z,100.00
2024-04-15T04:03:55.104Z,100.00
2024-04-15T04:06:21.869Z,100.00
2024-04-15T04:08:48.554Z,100.00
2024-04-15T04:11:15.296Z,100.00
2024-04-15T04:13:42.085Z,100.00
2024-04-15T04:16:08.775Z,100.00
2024-04-15T04:18:35.526Z,100.00
2024-04-15T04:21:02.281Z,100.00
2024-04-15T04:23:28.956Z,100.00
2024-04-15T04:25:55.580Z,100.00
2024-04-15T04:28:22.386Z,100.00
2024-04-15T04:30:49.122Z,100.00
2024-04-15T04:33:15.914Z,100.00
2024-04-15T04:35:42.616Z,100.00
2024-04-15T04:38:09.255Z,100.00
2024-04-15T04:40:35.901Z,100.00
2024-04-15T04:43:02.777Z,100.00
2024-04-15T04:45:29.506Z,100.00
2024-04-15T04:47:56.262Z,100.00
2024-04-15T04:50:23.111Z,100.00
2024-04-15T04:52:49.912Z,100.00
2024-04-15T04:55:16.654Z,100.00
2024-04-15T04:57:43.428Z,100.00
2024-04-15T05:00:10.099Z,100.00
2024-04-15T05:02:36.745Z,100.00
2024-04-15T05:05:03.512Z,100.00
2024-04-15T05:07:30.472Z,100.00
2024-04-15T05:09:57.192Z,100.00
2024-04-15T05:12:23.989Z,100.00
2024-04-15T05:14:50.576Z,100.00
2024-04-15T05:17:17.265Z,95.18
2024-04-15T05:19:43.981Z,86.65
2024-04-15T05:22:10.659Z,82.73
2024-04-15T05:24:37.296Z,84.63
2024-04-15T05:27:04.117Z,93.28
2024-04-15T05:29:30.724Z,87.29
2024-04-15T05:31:57.363Z,86.42
2024-04-15T05:34:24.115Z,84.27
2024-04-15T05:36:50.787Z,93.94
2024-04-15T05:39:17.404Z,91.66
2024-04-15T05:41:44.104Z,92.99
2024-04-15T05:44:10.727Z,92.67
2024-04-15T05:46:37.334Z,94.23
2024-04-15T05:49:04.031Z,94.06
2024-04-15T05:51:30.715Z,96.03
2024-04-15T05:53:57.371Z,98.98
2024-04-15T05:56:24.029Z,99.96
2024-04-15T05:58:50.771Z,100.00
2024-04-15T06:01:17.441Z,97.63
2024-04-15T06:03:44.359Z,96.92
2024-04-15T06:06:11.037Z,98.34
2024-04-15T06:08:37.709Z,96.72
2024-04-15T06:11:04.493Z,99.76
2024-04-15T06:13:31.138Z,98.92
2024-04-15T06:15:57.882Z,92.51
2024-04-15T06:18:24.649Z,85.84
2024-04-15T06:20:51.277Z,83.16
2024-04-15T06:23:17.880Z,80.03
2024-04-15T06:25:44.634Z,75.71
2024-04-15T06:28:11.318Z,76.32
2024-04-15T06:30:37.972Z,77.67
2024-04-15T06:33:04.787Z,72.67
2024-04-15T06:35:31.464Z,76.46
2024-04-15T06:37:58.070Z,80.41
2024-04-15T06:40:24.812Z,72.35
2024-04-15T06:42:51.487Z,74.94
2024-04-15T06:45:18.185Z,62.32
2024-04-15T06:47:44.900Z,53.31
2024-04-15T06:50:11.581Z,57.21
2024-04-15T06:52:38.206Z,55.19
2024-04-15T06:55:04.923Z,49.79
2024-04-15T06:57:31.704Z,49.81
2024-04-15T06:59:58.400Z,56.39
2024-04-15T07:02:25.324Z,66.21
2024-04-15T07:04:52.103Z,73.43
2024-04-15T07:07:18.917Z,75.84
2024-04-15T07:09:45.656Z,71.84
2024-04-15T07:12:12.309Z,72.53
2024-04-15T07:14:39.013Z,73.83
2024-04-15T07:17:05.816Z,72.32
2024-04-15T07:19:32.495Z,60.15
2024-04-15T07:21:59.238Z,47.95
2024-04-15T07:24:25.977Z,50.57
2024-04-15T07:26:52.616Z,51.03
2024-04-15T07:29:19.278Z,50.65
2024-04-15T07:31:46.197Z,45.70
2024-04-15T07:34:12.978Z,51.12
2024-04-15T07:36:39.612Z,55.05
2024-04-15T07:39:06.325Z,63.11
2024-04-15T07:41:32.957Z,67.96
2024-04-15T07:43:59.596Z,69.22
2024-04-15T07:46:26.378Z,70.93
2024-04-15T07:48:53.029Z,66.78
2024-04-15T07:51:19.764Z,64.86
2024-04-15T07:53:46.558Z,55.72
2024-04-15T07:56:13.205Z,57.11
2024-04-15T07:58:39.860Z,63.70
2024-04-15T08:01:06.829Z,64.25
2024-04-15T08:03:33.523Z,66.60
2024-04-15T08:06:00.229Z,59.14
2024-04-15T08:08:26.904Z,59.87
2024-04-15T08:10:53.664Z,58.30
2024-04-15T08:13:20.332Z,57.08
2024-04-15T08:15:47.091Z,59.77
2024-04-15T08:18:13.848Z,60.85
2024-04-15T08:20:40.544Z,57.39
2024-04-15T08:23:07.250Z,48.30
2024-04-15T08:25:33.986Z,47.42
2024-04-15T08:28:00.702Z,46.25
2024-04-15T08:30:27.433Z,45.53
2024-04-15T08:32:54.169Z,52.48
2024-04-15T08:35:20.848Z,56.27
2024-04-15T08:37:47.591Z,56.45
2024-04-15T08:40:14.281Z,60.42
2024-04-15T08:42:40.905Z,61.05
2024-04-15T08:45:07.611Z,62.92
2024-04-15T08:47:34.443Z,62.02
2024-04-15T08:50:01.227Z,62.31
2024-04-15T08:52:27.984Z,58.72
2024-04-15T08:54:54.827Z,59.81
2024-04-15T08:57:21.577Z,60.25
2024-04-15T08:59:48.348Z,57.39
2024-04-15T09:02:14.994Z,53.06
2024-04-15T09:04:41.988Z,55.15
2024-04-15T09:07:09.014Z,62.01
2024-04-15T09:09:35.710Z,60.88
2024-04-15T09:12:02.444Z,58.43
2024-04-15T09:14:29.319Z,57.83
2024-04-15T09:16:55.982Z,57.57
2024-04-15T09:19:22.677Z,50.08
2024-04-15T09:21:49.492Z,48.01
2024-04-15T09:24:16.126Z,53.48
2024-04-15T09:26:43.448Z,50.49
2024-04-15T09:29:10.678Z,50.69
2024-04-15T09:31:37.454Z,52.40
2024-04-15T09:34:04.187Z,54.56
2024-04-15T09:36:31.000Z,54.50
2024-04-15T09:38:57.883Z,54.75
2024-04-15T09:41:24.521Z,57.67
2024-04-15T09:43:51.427Z,58.51
2024-04-15T09:46:18.098Z,60.30
2024-04-15T09:48:44.761Z,60.45
2024-04-15T09:51:11.532Z,60.46
2024-04-15T09:53:38.337Z,60.62
2024-04-15T09:56:07.688Z,60.15
2024-04-15T09:58:35.221Z,58.97
2024-04-15T10:01:01.954Z,57.34
2024-04-15T10:03:28.640Z,58.17
2024-04-15T10:05:55.367Z,58.45
2024-04-15T10:08:22.320Z,61.57
2024-04-15T10:10:49.026Z,58.56
2024-04-15T10:13:15.869Z,63.25
2024-04-15T10:15:42.560Z,60.86
2024-04-15T10:18:09.254Z,58.86
2024-04-15T10:20:36.003Z,62.13
2024-04-15T10:23:04.788Z,61.64
2024-04-15T10:25:32.981Z,62.85
2024-04-15T10:27:59.763Z,64.96
2024-04-15T10:30:26.490Z,64.51
2024-04-15T10:32:53.185Z,64.39
2024-04-15T10:35:20.067Z,63.23
2024-04-15T10:37:46.824Z,63.71
2024-04-15T10:40:13.636Z,65.29
2024-04-15T10:42:40.327Z,65.78
2024-04-15T10:45:06.977Z,65.55
2024-04-15T10:47:33.712Z,64.87
2024-04-15T10:50:00.498Z,64.43
2024-04-15T10:52:27.120Z,64.53
2024-04-15T10:54:53.852Z,65.50
2024-04-15T10:57:20.758Z,61.47
2024-04-15T10:59:49.772Z,62.05
2024-04-15T11:02:19.098Z,62.65
2024-04-15T11:04:45.932Z,58.12
2024-04-15T11:07:12.723Z,58.21
2024-04-15T11:09:39.428Z,58.21
2024-04-15T11:12:06.143Z,58.32
2024-04-15T11:14:32.777Z,57.67
2024-04-15T11:16:59.568Z,60.04
2024-04-15T11:19:26.523Z,58.80
2024-04-15T11:21:53.702Z,59.22
2024-04-15T11:24:20.783Z,57.87
2024-04-15T11:26:47.524Z,59.72
2024-04-15T11:29:14.165Z,59.53
2024-04-15T11:31:41.849Z,59.00
2024-04-15T11:34:08.757Z,61.04
2024-04-15T11:36:35.514Z,59.52
2024-04-15T11:39:02.248Z,60.19
2024-04-15T11:41:29.046Z,59.92
2024-04-15T11:43:55.850Z,59.86
2024-04-15T11:46:22.816Z,61.14
2024-04-15T11:48:49.796Z,59.97
2024-04-15T11:51:16.570Z,60.35
2024-04-15T11:53:43.275Z,59.36
2024-04-15T11:56:10.086Z,60.31
2024-04-15T11:58:36.928Z,61.10
2024-04-15T12:01:03.896Z,60.99
2024-04-15T12:03:30.787Z,62.68
2024-04-15T12:05:57.536Z,62.47
2024-04-15T12:08:24.235Z,63.03
2024-04-15T12:10:51.037Z,62.21
2024-04-15T12:13:17.794Z,64.77
2024-04-15T12:15:44.653Z,64.09
2024-04-15T12:18:11.509Z,63.32
2024-04-15T12:20:38.236Z,65.68
2024-04-15T12:23:04.980Z,64.96
2024-04-15T12:25:31.865Z,65.08
2024-04-15T12:27:58.590Z,63.06
2024-04-15T12:30:25.314Z,66.88
2024-04-15T12:32:52.193Z,65.78
2024-04-15T12:35:18.954Z,65.47
2024-04-15T12:37:45.833Z,68.81
2024-04-15T12:40:12.900Z,70.00
2024-04-15T12:42:39.953Z,71.82
2024-04-15T12:45:06.853Z,76.86
2024-04-15T12:47:33.927Z,77.79
2024-04-15T12:50:00.966Z,80.50
2024-04-15T12:52:27.945Z,77.27
2024-04-15T12:54:54.990Z,75.68
2024-04-15T12:57:21.810Z,77.77
2024-04-15T12:59:48.563Z,76.76
2024-04-15T13:02:15.520Z,77.14
2024-04-15T13:04:42.415Z,78.80
2024-04-15T13:07:09.236Z,77.24
2024-04-15T13:09:36.200Z,78.37
2024-04-15T13:12:02.902Z,79.83
2024-04-15T13:14:29.625Z,82.51
2024-04-15T13:16:56.443Z,82.96
2024-04-15T13:19:23.412Z,84.67
2024-04-15T13:21:50.240Z,86.20
2024-04-15T13:24:17.119Z,99.40
2024-04-15T13:26:44.035Z,100.00
2024-04-15T13:29:10.998Z,100.00
2024-04-15T13:31:37.818Z,100.00
2024-04-15T13:34:05.048Z,100.00
2024-04-15T13:36:32.254Z,100.00
2024-04-15T13:38:59.140Z,100.00
2024-04-15T13:41:25.963Z,100.00
2024-04-15T13:43:52.697Z,100.00
2024-04-15T13:46:19.569Z,100.00
2024-04-15T13:48:46.446Z,100.00
2024-04-15T13:51:13.296Z,100.00
2024-04-15T13:53:40.134Z,100.00
2024-04-15T13:56:06.848Z,100.00
2024-04-15T13:58:33.612Z,100.00
2024-04-15T14:01:00.557Z,100.00
2024-04-15T14:03:27.554Z,100.00
2024-04-15T14:05:54.368Z,100.00
2024-04-15T14:08:21.843Z,100.00
2024-04-15T14:10:49.284Z,100.00
2024-04-15T14:13:16.129Z,100.00
2024-04-15T14:15:43.660Z,100.00
2024-04-15T14:18:10.820Z,100.00
2024-04-15T14:20:37.635Z,100.00
2024-04-15T14:23:04.507Z,100.00
2024-04-15T14:25:31.281Z,100.00
2024-04-15T14:27:58.064Z,100.00
2024-04-15T14:30:24.938Z,100.00
2024-04-15T14:32:51.893Z,100.00
2024-04-15T14:35:19.071Z,100.00
2024-04-15T14:37:45.870Z,100.00
2024-04-15T14:40:20.025Z,100.00
2024-04-15T14:42:50.272Z,100.00
2024-04-15T14:45:17.018Z,100.00
2024-04-15T14:47:43.827Z,100.00
2024-04-15T14:50:10.679Z,100.00
2024-04-15T14:52:37.471Z,100.00
2024-04-15T14:55:04.417Z,100.00
2024-04-15T14:57:31.654Z,100.00
2024-04-15T14:59:58.430Z,100.00
2024-04-15T15:02:25.228Z,100.00
2024-04-15T15:04:52.054Z,100.00
2024-04-15T15:07:18.840Z,100.00
2024-04-15T15:09:45.662Z,100.00
2024-04-15T15:12:13.355Z,100.00
2024-04-15T15:14:40.558Z,100.00
2024-04-15T15:17:07.270Z,100.00
2024-04-15T15:19:34.125Z,100.00
2024-04-15T15:22:00.903Z,100.00
2024-04-15T15:24:27.848Z,100.00
2024-04-15T15:26:54.723Z,100.00
2024-04-15T15:29:21.445Z,100.00
2024-04-15T15:31:48.186Z,100.00
2024-04-15T15:34:15.253Z,100.00
2024-04-15T15:36:42.009Z,100.00
2024-04-15T15:39:08.843Z,100.00
2024-04-15T15:41:35.707Z,100.00
2024-04-15T15:44:02.472Z,100.00
2024-04-15T15:46:29.330Z,100.00
2024-04-15T15:48:56.407Z,100.00
2024-04-15T15:51:23.353Z,100.00
2024-04-15T15:53:50.210Z,100.00
2024-04-15T15:56:17.242Z,100.00
2024-04-15T15:58:46.389Z,100.00
2024-04-15T16:01:13.611Z,100.00
2024-04-15T16:03:40.464Z,100.00
2024-04-15T16:06:07.239Z,100.00
2024-04-15T16:08:33.956Z,100.00
2024-04-15T16:11:01.104Z,100.00
2024-04-15T16:13:28.411Z,100.00
2024-04-15T16:15:55.339Z,100.00
2024-04-15T16:18:22.200Z,100.00
2024-04-15T16:20:48.956Z,100.00
2024-04-15T16:23:15.765Z,100.00
2024-04-15T16:25:42.599Z,100.00
2024-04-15T16:28:09.398Z,100.00
2024-04-15T16:30:36.160Z,100.00
2024-04-15T16:33:03.140Z,100.00
2024-04-15T16:35:29.988Z,100.00
2024-04-15T16:37:56.707Z,100.00
2024-04-15T16:40:23.567Z,100.00
2024-04-15T16:42:50.358Z,100.00
2024-04-15T16:45:17.081Z,100.00
2024-04-15T16:47:44.122Z,100.00
2024-04-15T16:50:11.158Z,100.00
2024-04-15T16:52:37.857Z,100.00
2024-04-15T16:55:04.939Z,100.00
2024-04-15T16:57:31.919Z,100.00
2024-04-15T16:59:58.721Z,100.00
2024-04-15T17:02:25.588Z,100.00
2024-04-15T17:04:54.645Z,100.00
2024-04-15T17:07:21.489Z,100.00
2024-04-15T17:09:48.372Z,100.00
2024-04-15T17:12:15.185Z,100.00
2024-04-15T17:14:41.874Z,100.00
2024-04-15T17:17:10.892Z,100.00
2024-04-15T17:19:39.236Z,100.00
2024-04-15T17:22:06.289Z,100.00
2024-04-15T17:24:33.498Z,100.00
2024-04-15T17:27:00.823Z,100.00
2024-04-15T17:29:28.637Z,100.00
2024-04-15T17:31:55.422Z,100.00
2024-04-15T17:34:22.260Z,100.00
2024-04-15T17:36:49.215Z,100.00
2024-04-15T17:39:16.025Z,100.00
2024-04-15T17:41:42.765Z,100.00
2024-04-15T17:44:12.103Z,100.00
2024-04-15T17:46:40.408Z,100.00
2024-04-15T17:49:07.187Z,100.00
2024-04-15T17:51:33.912Z,100.00
2024-04-15T17:54:00.814Z,100.00
2024-04-15T17:56:27.704Z,100.00
2024-04-15T17:58:55.449Z,100.00
2024-04-15T18:01:22.509Z,100.00
2024-04-15T18:03:49.275Z,100.00
2024-04-15T18:06:16.691Z,100.00
2024-04-15T18:08:43.700Z,100.00
2024-04-15T18:11:10.511Z,100.00
2024-04-15T18:13:37.383Z,100.00
2024-04-15T18:16:04.495Z,100.00
2024-04-15T18:18:34.791Z,100.00
2024-04-15T18:21:01.555Z,100.00
2024-04-15T18:23:28.398Z,100.00
2024-04-15T18:25:55.271Z,100.00
2024-04-15T18:28:22.102Z,100.00
2024-04-15T18:30:52.170Z,100.00
2024-04-15T18:33:19.094Z,100.00
2024-04-15T18:35:45.944Z,100.00
2024-04-15T18:38:12.875Z,100.00
2024-04-15T18:40:40.509Z,100.00
2024-04-15T18:43:07.541Z,100.00
2024-04-15T18:45:34.577Z,100.00
2024-04-15T18:48:01.752Z,100.00
2024-04-15T18:50:29.063Z,100.00
2024-04-15T18:52:56.007Z,100.00
2024-04-15T18:55:22.717Z,100.00
2024-04-15T18:57:49.459Z,100.00
2024-04-15T19:00:16.476Z,100.00
2024-04-15T19:02:43.293Z,100.00
2024-04-15T19:05:10.050Z,100.00
2024-04-15T19:07:37.944Z,100.00
2024-04-15T19:10:04.868Z,100.00
2024-04-15T19:12:32.496Z,100.00
2024-04-15T19:17:32.334Z,100.00
2024-04-15T19:19:59.511Z,100.00
2024-04-15T19:22:27.727Z,100.00
2024-04-15T19:24:54.553Z,100.00
2024-04-15T19:27:21.392Z,100.00
2024-04-15T19:29:48.153Z,100.00
2024-04-15T19:32:15.046Z,100.00
2024-04-15T19:34:41.961Z,100.00
2024-04-15T19:37:11.025Z,100.00
2024-04-15T19:39:37.766Z,100.00
2024-04-15T19:42:04.781Z,100.00
2024-04-15T19:44:31.537Z,100.00
2024-04-15T19:46:58.234Z,100.00
2024-04-15T19:49:25.058Z,100.00
2024-04-15T19:51:51.873Z,100.00
2024-04-15T19:54:18.675Z,100.00
2024-04-15T19:56:45.468Z,100.00
2024-04-15T19:59:12.176Z,100.00
2024-04-15T20:01:38.960Z,100.00
2024-04-15T20:04:05.874Z,100.00
2024-04-15T20:06:32.861Z,100.00
2024-04-15T20:08:59.586Z,100.00
2024-04-15T20:11:26.439Z,100.00
2024-04-15T20:13:53.317Z,100.00
2024-04-15T20:16:20.101Z,100.00
2024-04-15T20:18:47.041Z,100.00
2024-04-15T20:21:13.862Z,100.00
2024-04-15T20:23:40.563Z,100.00
2024-04-15T20:26:07.360Z,100.00
2024-04-15T20:28:34.234Z,100.00
2024-04-15T20:31:01.074Z,100.00
2024-04-15T20:33:27.969Z,100.00
2024-04-15T20:35:54.701Z,100.00
2024-04-15T20:38:21.432Z,100.00
2024-04-15T20:40:48.273Z,100.00
2024-04-15T20:43:15.037Z,100.00
2024-04-15T20:45:41.804Z,100.00
2024-04-15T20:48:08.747Z,100.00
2024-04-15T20:50:35.482Z,100.00
2024-04-15T20:53:02.233Z,100.00
2024-04-15T20:55:29.194Z,100.00
2024-04-15T20:57:56.050Z,100.00
2024-04-15T21:00:22.748Z,100.00
2024-04-15T21:02:49.563Z,100.00
2024-04-15T21:05:16.271Z,100.00
2024-04-15T21:07:43.004Z,100.00
2024-04-15T21:10:09.830Z,100.00
2024-04-15T21:12:36.666Z,100.00
2024-04-15T21:15:03.429Z,100.00
2024-04-15T21:17:30.703Z,100.00
2024-04-15T21:19:57.470Z,100.00
2024-04-15T21:22:24.198Z,100.00
2024-04-15T21:24:50.972Z,100.00
2024-04-15T21:27:17.692Z,100.00
2024-04-15T22:03:30.066Z,100.00
2024-04-15T22:05:56.795Z,100.00
2024-04-15T22:08:23.522Z,100.00
2024-04-15T22:10:50.455Z,100.00
2024-04-15T22:13:17.348Z,100.00
2024-04-15T22:15:44.073Z,100.00
2024-04-15T22:18:11.009Z,100.00
2024-04-15T22:20:37.767Z,100.00
2024-04-15T22:23:04.474Z,100.00
2024-04-15T22:25:31.406Z,100.00
2024-04-15T22:27:58.293Z,100.00
2024-04-15T22:30:25.031Z,100.00
2024-04-15T22:32:51.981Z,100.00
2024-04-15T22:35:18.769Z,100.00
2024-04-15T22:37:45.442Z,100.00
2024-04-15T22:40:12.217Z,100.00
2024-04-15T22:42:38.930Z,100.00
2024-04-15T22:45:05.671Z,100.00
2024-04-15T22:47:32.588Z,100.00
2024-04-15T22:49:59.394Z,100.00
2024-04-15T22:52:26.108Z,100.00
2024-04-15T22:54:52.975Z,100.00
2024-04-15T22:57:19.724Z,100.00
2024-04-15T22:59:46.520Z,100.00
2024-04-15T23:02:13.431Z,100.00
2024-04-15T23:04:40.348Z,100.00
2024-04-15T23:07:07.184Z,100.00
2024-04-15T23:09:34.023Z,100.00
2024-04-15T23:12:00.728Z,100.00
2024-04-15T23:14:27.466Z,100.00
2024-04-15T23:16:54.323Z,100.00
2024-04-15T23:19:21.153Z,100.00
2024-04-15T23:21:48.016Z,100.00
2024-04-15T23:24:14.813Z,100.00
2024-04-15T23:26:41.532Z,100.00
2024-04-15T23:29:08.253Z,100.00
2024-04-15T23:31:35.192Z,100.00
2024-04-15T23:34:02.004Z,100.00
2024-04-15T23:36:28.729Z,100.00
2024-04-15T23:38:55.489Z,100.00
2024-04-15T23:41:22.286Z,100.00
2024-04-15T23:43:49.027Z,100.00
2024-04-15T23:46:15.891Z,100.00
2024-04-15T23:48:42.709Z,100.00
2024-04-15T23:51:09.401Z,100.00
2024-04-15T23:53:36.312Z,100.00
2024-04-15T23:56:03.022Z,100.00
2024-04-15T23:58:29.870Z,100.00
